sensor_id;sensor_type;location;lat;lon;timestamp;pressure;altitude;pressure_sealevel;temperature;humidity
28630;BME280;15817;42.130;24.762;2023-02-26T00:01:59;98835.31;;;10.95;91.18
28630;BME280;15817;42.130;24.762;2023-02-26T00:04:29;98827.41;;;10.91;91.49
28630;BME280;15817;42.130;24.762;2023-02-26T00:06:55;98826.50;;;10.92;91.53
28630;BME280;15817;42.130;24.762;2023-02-26T00:09:21;98833.56;;;10.94;91.44
28630;BME280;15817;42.130;24.762;2023-02-26T00:11:51;98834.44;;;10.95;91.55
28630;BME280;15817;42.130;24.762;2023-02-26T00:14:17;98824.72;;;10.92;91.67
28630;BME280;15817;42.130;24.762;2023-02-26T00:16:51;98816.84;;;10.87;91.48
28630;BME280;15817;42.130;24.762;2023-02-26T00:19:20;98822.09;;;10.91;91.76
28630;BME280;15817;42.130;24.762;2023-02-26T00:21:46;98837.19;;;10.90;92.09
28630;BME280;15817;42.130;24.762;2023-02-26T00:24:12;98829.13;;;10.95;91.81
28630;BME280;15817;42.130;24.762;2023-02-26T00:26:40;98830.97;;;10.91;91.69
28630;BME280;15817;42.130;24.762;2023-02-26T00:29:06;98845.13;;;10.92;91.93
28630;BME280;15817;42.130;24.762;2023-02-26T00:31:40;98830.09;;;10.91;91.68
28630;BME280;15817;42.130;24.762;2023-02-26T00:34:11;98830.97;;;10.91;91.52
28630;BME280;15817;42.130;24.762;2023-02-26T00:41:57;98830.03;;;10.94;91.18
28630;BME280;15817;42.130;24.762;2023-02-26T00:44:29;98817.66;;;10.91;91.01
28630;BME280;15817;42.130;24.762;2023-02-26T00:47:02;98806.81;;;10.99;90.97
28630;BME280;15817;42.130;24.762;2023-02-26T00:52:26;98822.75;;;11.00;90.95
28630;BME280;15817;42.130;24.762;2023-02-26T00:54:53;98818.47;;;10.95;90.74
28630;BME280;15817;42.130;24.762;2023-02-26T00:57:19;98801.53;;;10.97;90.79
28630;BME280;15817;42.130;24.762;2023-02-26T00:59:45;98803.41;;;10.94;90.83
28630;BME280;15817;42.130;24.762;2023-02-26T01:02:11;98826.28;;;11.01;90.72
28630;BME280;15817;42.130;24.762;2023-02-26T01:04:38;98793.66;;;10.94;90.48
28630;BME280;15817;42.130;24.762;2023-02-26T01:07:04;98804.97;;;11.02;90.20
28630;BME280;15817;42.130;24.762;2023-02-26T01:09:33;98821.75;;;11.06;89.84
28630;BME280;15817;42.130;24.762;2023-02-26T01:12:07;98824.41;;;11.06;89.56
28630;BME280;15817;42.130;24.762;2023-02-26T01:14:35;98804.00;;;11.06;89.78
28630;BME280;15817;42.130;24.762;2023-02-26T01:17:24;98808.41;;;11.07;89.74
28630;BME280;15817;42.130;24.762;2023-02-26T01:20:01;98807.66;;;11.01;89.80
28630;BME280;15817;42.130;24.762;2023-02-26T01:22:36;98827.94;;;11.06;89.80
28630;BME280;15817;42.130;24.762;2023-02-26T01:25:14;98805.91;;;11.00;89.91
28630;BME280;15817;42.130;24.762;2023-02-26T01:27:45;98802.38;;;10.99;90.09
28630;BME280;15817;42.130;24.762;2023-02-26T01:30:11;98822.63;;;11.06;90.18
28630;BME280;15817;42.130;24.762;2023-02-26T01:32:48;98821.03;;;10.98;89.90
28630;BME280;15817;42.130;24.762;2023-02-26T01:35:36;98846.56;;;11.06;90.18
28630;BME280;15817;42.130;24.762;2023-02-26T01:38:19;98853.63;;;11.07;90.18
28630;BME280;15817;42.130;24.762;2023-02-26T01:46:44;98831.59;;;11.01;90.13
28630;BME280;15817;42.130;24.762;2023-02-26T01:49:18;98810.41;;;10.96;90.05
28630;BME280;15817;42.130;24.762;2023-02-26T01:55:42;98821.06;;;10.96;90.41
28630;BME280;15817;42.130;24.762;2023-02-26T01:58:10;98825.56;;;10.94;90.58
28630;BME280;15817;42.130;24.762;2023-02-26T02:00:39;98815.91;;;10.90;90.49
28630;BME280;15817;42.130;24.762;2023-02-26T02:03:05;98816.75;;;10.92;90.93
28630;BME280;15817;42.130;24.762;2023-02-26T02:05:40;98820.25;;;10.94;90.86
28630;BME280;15817;42.130;24.762;2023-02-26T02:08:11;98795.53;;;10.89;90.80
28630;BME280;15817;42.130;24.762;2023-02-26T02:10:40;98806.22;;;10.87;90.91
28630;BME280;15817;42.130;24.762;2023-02-26T02:13:39;98821.13;;;10.95;88.84
28630;BME280;15817;42.130;24.762;2023-02-26T02:21:29;98812.28;;;10.94;90.47
28630;BME280;15817;42.130;24.762;2023-02-26T02:26:57;98822.03;;;10.94;90.44
28630;BME280;15817;42.130;24.762;2023-02-26T02:32:45;98810.56;;;10.92;89.87
28630;BME280;15817;42.130;24.762;2023-02-26T02:35:33;98795.53;;;10.89;88.75
28630;BME280;15817;42.130;24.762;2023-02-26T02:38:15;98800.72;;;10.95;87.95
28630;BME280;15817;42.130;24.762;2023-02-26T02:40:47;98798.81;;;11.00;87.26
28630;BME280;15817;42.130;24.762;2023-02-26T02:43:17;98821.72;;;11.07;84.93
28630;BME280;15817;42.130;24.762;2023-02-26T02:45:52;98819.78;;;11.12;83.68
28630;BME280;15817;42.130;24.762;2023-02-26T02:48:23;98804.69;;;11.13;83.11
28630;BME280;15817;42.130;24.762;2023-02-26T02:51:06;98808.28;;;11.12;82.21
28630;BME280;15817;42.130;24.762;2023-02-26T02:53:43;98804.28;;;11.30;78.37
28630;BME280;15817;42.130;24.762;2023-02-26T02:56:16;98807.28;;;11.50;74.66
28630;BME280;15817;42.130;24.762;2023-02-26T02:58:55;98816.13;;;11.52;74.77
28630;BME280;15817;42.130;24.762;2023-02-26T03:01:24;98836.25;;;11.62;73.46
28630;BME280;15817;42.130;24.762;2023-02-26T03:04:05;98827.41;;;11.60;74.15
28630;BME280;15817;42.130;24.762;2023-02-26T03:06:33;98822.25;;;11.54;74.57
28630;BME280;15817;42.130;24.762;2023-02-26T03:08:59;98818.59;;;11.58;74.39
28630;BME280;15817;42.130;24.762;2023-02-26T03:11:26;98809.03;;;11.51;76.06
28630;BME280;15817;42.130;24.762;2023-02-26T03:13:52;98824.25;;;11.46;76.75
28630;BME280;15817;42.130;24.762;2023-02-26T03:16:53;98816.50;;;11.37;77.94
28630;BME280;15817;42.130;24.762;2023-02-26T03:25:00;98808.84;;;11.24;80.15
28630;BME280;15817;42.130;24.762;2023-02-26T03:30:13;98802.88;;;11.15;80.42
28630;BME280;15817;42.130;24.762;2023-02-26T03:33:11;98796.56;;;11.19;79.45
28630;BME280;15817;42.130;24.762;2023-02-26T03:35:49;98815.84;;;11.29;78.75
28630;BME280;15817;42.130;24.762;2023-02-26T03:41:07;98803.53;;;11.23;79.64
28630;BME280;15817;42.130;24.762;2023-02-26T03:46:12;98800.81;;;11.26;80.14
28630;BME280;15817;42.130;24.762;2023-02-26T03:48:39;98796.50;;;11.20;80.81
28630;BME280;15817;42.130;24.762;2023-02-26T03:51:11;98787.63;;;11.21;81.73
28630;BME280;15817;42.130;24.762;2023-02-26T03:54:28;98801.94;;;11.17;81.87
28630;BME280;15817;42.130;24.762;2023-02-26T03:57:13;98789.50;;;11.18;82.46
28630;BME280;15817;42.130;24.762;2023-02-26T03:59:57;98790.53;;;11.12;82.84
28630;BME280;15817;42.130;24.762;2023-02-26T04:02:57;98778.13;;;11.11;83.23
28630;BME280;15817;42.130;24.762;2023-02-26T04:05:46;98802.03;;;11.13;84.15
28630;BME280;15817;42.130;24.762;2023-02-26T04:08:13;98809.16;;;11.12;84.31
28630;BME280;15817;42.130;24.762;2023-02-26T04:10:57;98784.53;;;11.04;84.70
28630;BME280;15817;42.130;24.762;2023-02-26T04:13:23;98779.16;;;11.06;85.21
28630;BME280;15817;42.130;24.762;2023-02-26T04:15:53;98770.38;;;11.02;85.44
28630;BME280;15817;42.130;24.762;2023-02-26T04:18:19;98779.22;;;11.04;85.58
28630;BME280;15817;42.130;24.762;2023-02-26T04:20:47;98774.78;;;11.03;85.31
28630;BME280;15817;42.130;24.762;2023-02-26T04:23:13;98760.63;;;11.03;85.80
28630;BME280;15817;42.130;24.762;2023-02-26T04:25:39;98772.09;;;11.05;85.56
28630;BME280;15817;42.130;24.762;2023-02-26T04:28:06;98774.06;;;10.97;85.89
28630;BME280;15817;42.130;24.762;2023-02-26T04:30:32;98770.53;;;10.96;86.23
28630;BME280;15817;42.130;24.762;2023-02-26T04:32:59;98773.97;;;11.00;86.44
28630;BME280;15817;42.130;24.762;2023-02-26T04:35:25;98762.44;;;11.01;86.73
28630;BME280;15817;42.130;24.762;2023-02-26T04:37:51;98753.56;;;11.00;86.87
28630;BME280;15817;42.130;24.762;2023-02-26T04:40:17;98751.06;;;10.96;86.72
28630;BME280;15817;42.130;24.762;2023-02-26T04:42:43;98755.28;;;11.03;86.91
28630;BME280;15817;42.130;24.762;2023-02-26T04:45:10;98748.41;;;10.96;87.32
28630;BME280;15817;42.130;24.762;2023-02-26T04:47:45;98751.06;;;10.96;88.06
28630;BME280;15817;42.130;24.762;2023-02-26T04:50:11;98755.38;;;11.00;88.28
28630;BME280;15817;42.130;24.762;2023-02-26T04:52:36;98758.78;;;11.05;88.39
28630;BME280;15817;42.130;24.762;2023-02-26T04:55:03;98762.28;;;11.07;88.67
28630;BME280;15817;42.130;24.762;2023-02-26T04:57:28;98747.34;;;11.01;88.76
28630;BME280;15817;42.130;24.762;2023-02-26T04:59:54;98754.38;;;11.04;89.11
28630;BME280;15817;42.130;24.762;2023-02-26T05:02:25;98756.69;;;11.17;89.42
28630;BME280;15817;42.130;24.762;2023-02-26T05:04:51;98746.78;;;11.22;89.69
28630;BME280;15817;42.130;24.762;2023-02-26T05:07:17;98744.91;;;11.26;89.81
28630;BME280;15817;42.130;24.762;2023-02-26T05:09:43;98756.25;;;11.33;89.94
28630;BME280;15817;42.130;24.762;2023-02-26T05:12:09;98757.91;;;11.38;89.88
28630;BME280;15817;42.130;24.762;2023-02-26T05:14:34;98756.03;;;11.42;89.17
28630;BME280;15817;42.130;24.762;2023-02-26T05:17:00;98749.34;;;11.27;89.01
28630;BME280;15817;42.130;24.762;2023-02-26T05:19:26;98763.59;;;11.24;89.52
28630;BME280;15817;42.130;24.762;2023-02-26T05:21:52;98775.06;;;11.27;89.84
28630;BME280;15817;42.130;24.762;2023-02-26T05:24:18;98777.69;;;11.28;90.20
28630;BME280;15817;42.130;24.762;2023-02-26T05:26:44;98756.56;;;11.22;89.84
28630;BME280;15817;42.130;24.762;2023-02-26T05:29:14;98750.47;;;11.18;90.20
28630;BME280;15817;42.130;24.762;2023-02-26T05:31:40;98757.56;;;11.18;90.63
28630;BME280;15817;42.130;24.762;2023-02-26T05:34:07;98756.72;;;11.16;90.69
28630;BME280;15817;42.130;24.762;2023-02-26T05:36:33;98760.16;;;11.19;90.90
28630;BME280;15817;42.130;24.762;2023-02-26T05:38:59;98783.00;;;11.30;90.52
28630;BME280;15817;42.130;24.762;2023-02-26T05:41:25;98787.44;;;11.29;90.29
28630;BME280;15817;42.130;24.762;2023-02-26T05:43:51;98789.28;;;11.25;90.27
28630;BME280;15817;42.130;24.762;2023-02-26T05:46:16;98779.63;;;11.21;90.26
28630;BME280;15817;42.130;24.762;2023-02-26T05:48:42;98785.78;;;11.23;90.43
28630;BME280;15817;42.130;24.762;2023-02-26T05:51:08;98780.50;;;11.22;90.65
28630;BME280;15817;42.130;24.762;2023-02-26T05:53:34;98786.56;;;11.29;90.42
28630;BME280;15817;42.130;24.762;2023-02-26T05:56:00;98779.44;;;11.29;90.05
28630;BME280;15817;42.130;24.762;2023-02-26T05:58:29;98796.19;;;11.33;90.14
28630;BME280;15817;42.130;24.762;2023-02-26T06:01:04;98826.22;;;11.39;89.86
28630;BME280;15817;42.130;24.762;2023-02-26T06:03:30;98804.81;;;11.42;90.32
28630;BME280;15817;42.130;24.762;2023-02-26T06:05:55;98800.56;;;11.35;90.33
28630;BME280;15817;42.130;24.762;2023-02-26T06:08:21;98827.84;;;11.43;89.70
28630;BME280;15817;42.130;24.762;2023-02-26T06:10:49;98807.41;;;11.45;89.56
28630;BME280;15817;42.130;24.762;2023-02-26T06:13:17;98819.88;;;11.43;89.83
28630;BME280;15817;42.130;24.762;2023-02-26T06:15:48;98829.63;;;11.43;89.71
28630;BME280;15817;42.130;24.762;2023-02-26T06:18:16;98833.09;;;11.46;89.48
28630;BME280;15817;42.130;24.762;2023-02-26T06:20:42;98832.19;;;11.47;89.81
28630;BME280;15817;42.130;24.762;2023-02-26T06:23:08;98824.28;;;11.44;90.13
28630;BME280;15817;42.130;24.762;2023-02-26T06:25:35;98830.41;;;11.48;89.82
28630;BME280;15817;42.130;24.762;2023-02-26T06:28:27;98832.81;;;11.57;89.73
28630;BME280;15817;42.130;24.762;2023-02-26T06:30:54;98836.28;;;11.60;89.49
28630;BME280;15817;42.130;24.762;2023-02-26T06:33:32;98840.81;;;11.57;89.56
28630;BME280;15817;42.130;24.762;2023-02-26T06:36:12;98819.25;;;11.66;83.37
28630;BME280;15817;42.130;24.762;2023-02-26T06:38:38;98832.38;;;11.75;84.36
28630;BME280;15817;42.130;24.762;2023-02-26T06:41:04;98827.78;;;11.80;83.35
28630;BME280;15817;42.130;24.762;2023-02-26T06:43:31;98816.84;;;11.89;82.98
28630;BME280;15817;42.130;24.762;2023-02-26T06:45:58;98821.44;;;11.86;82.37
28630;BME280;15817;42.130;24.762;2023-02-26T06:48:24;98825.03;;;12.14;79.94
28630;BME280;15817;42.130;24.762;2023-02-26T06:50:50;98827.81;;;12.11;81.01
28630;BME280;15817;42.130;24.762;2023-02-26T06:53:16;98807.56;;;12.04;82.12
28630;BME280;15817;42.130;24.762;2023-02-26T06:55:43;98831.41;;;12.10;83.30
28630;BME280;15817;42.130;24.762;2023-02-26T06:58:10;98819.06;;;12.06;84.54
28630;BME280;15817;42.130;24.762;2023-02-26T07:00:36;98820.16;;;11.99;84.93
28630;BME280;15817;42.130;24.762;2023-02-26T07:03:05;98815.59;;;12.03;84.66
28630;BME280;15817;42.130;24.762;2023-02-26T07:05:31;98818.94;;;12.11;83.86
28630;BME280;15817;42.130;24.762;2023-02-26T07:08:03;98809.97;;;12.13;83.99
28630;BME280;15817;42.130;24.762;2023-02-26T07:10:33;98830.94;;;12.25;80.29
28630;BME280;15817;42.130;24.762;2023-02-26T07:13:00;98818.38;;;12.29;79.22
28630;BME280;15817;42.130;24.762;2023-02-26T07:15:26;98832.34;;;12.37;78.04
28630;BME280;15817;42.130;24.762;2023-02-26T07:17:52;98825.78;;;12.49;77.33
28630;BME280;15817;42.130;24.762;2023-02-26T07:20:18;98826.38;;;12.58;75.84
28630;BME280;15817;42.130;24.762;2023-02-26T07:22:44;98828.03;;;12.62;77.02
28630;BME280;15817;42.130;24.762;2023-02-26T07:25:17;98844.63;;;12.72;76.39
28630;BME280;15817;42.130;24.762;2023-02-26T07:27:46;98838.81;;;12.87;72.52
28630;BME280;15817;42.130;24.762;2023-02-26T07:30:15;98829.59;;;12.97;72.38
28630;BME280;15817;42.130;24.762;2023-02-26T07:32:43;98844.47;;;13.04;72.85
28630;BME280;15817;42.130;24.762;2023-02-26T07:35:09;98843.88;;;13.24;70.82
28630;BME280;15817;42.130;24.762;2023-02-26T07:37:37;98831.78;;;13.39;71.45
28630;BME280;15817;42.130;24.762;2023-02-26T07:40:03;98833.28;;;13.48;68.82
28630;BME280;15817;42.130;24.762;2023-02-26T07:42:39;98840.09;;;13.56;67.25
28630;BME280;15817;42.130;24.762;2023-02-26T07:45:22;98835.38;;;13.64;66.15
28630;BME280;15817;42.130;24.762;2023-02-26T07:47:50;98847.47;;;13.74;64.56
28630;BME280;15817;42.130;24.762;2023-02-26T07:50:22;98829.69;;;13.73;64.70
28630;BME280;15817;42.130;24.762;2023-02-26T07:52:53;98825.78;;;13.84;65.08
28630;BME280;15817;42.130;24.762;2023-02-26T07:55:20;98823.59;;;13.95;63.70
28630;BME280;15817;42.130;24.762;2023-02-26T07:57:48;98812.81;;;13.96;64.11
28630;BME280;15817;42.130;24.762;2023-02-26T08:00:15;98822.38;;;14.03;63.60
28630;BME280;15817;42.130;24.762;2023-02-26T08:02:41;98822.00;;;14.14;63.70
28630;BME280;15817;42.130;24.762;2023-02-26T08:05:07;98811.28;;;14.14;64.09
28630;BME280;15817;42.130;24.762;2023-02-26T08:07:37;98817.13;;;14.25;63.22
28630;BME280;15817;42.130;24.762;2023-02-26T08:10:03;98808.56;;;14.39;61.85
28630;BME280;15817;42.130;24.762;2023-02-26T08:12:29;98818.31;;;14.41;62.99
28630;BME280;15817;42.130;24.762;2023-02-26T08:14:55;98810.28;;;14.41;63.27
28630;BME280;15817;42.130;24.762;2023-02-26T08:17:21;98817.19;;;14.47;62.58
28630;BME280;15817;42.130;24.762;2023-02-26T08:19:47;98811.00;;;14.68;59.67
28630;BME280;15817;42.130;24.762;2023-02-26T08:22:13;98816.53;;;14.87;58.79
28630;BME280;15817;42.130;24.762;2023-02-26T08:24:38;98829.25;;;15.02;58.56
28630;BME280;15817;42.130;24.762;2023-02-26T08:27:07;98825.22;;;15.14;56.59
28630;BME280;15817;42.130;24.762;2023-02-26T08:29:33;98817.81;;;15.20;57.08
28630;BME280;15817;42.130;24.762;2023-02-26T08:31:59;98829.06;;;15.29;57.33
28630;BME280;15817;42.130;24.762;2023-02-26T08:34:45;98821.59;;;15.37;57.80
28630;BME280;15817;42.130;24.762;2023-02-26T08:37:16;98806.78;;;15.48;58.24
28630;BME280;15817;42.130;24.762;2023-02-26T08:40:09;98810.13;;;15.55;58.34
28630;BME280;15817;42.130;24.762;2023-02-26T08:49:24;98805.50;;;15.79;57.00
28630;BME280;15817;42.130;24.762;2023-02-26T08:51:59;98798.88;;;15.87;56.95
28630;BME280;15817;42.130;24.762;2023-02-26T08:54:28;98799.25;;;15.99;57.43
28630;BME280;15817;42.130;24.762;2023-02-26T08:57:22;98799.13;;;16.02;56.40
28630;BME280;15817;42.130;24.762;2023-02-26T09:00:10;98792.28;;;16.15;55.55
28630;BME280;15817;42.130;24.762;2023-02-26T09:06:04;98802.31;;;16.49;52.87
28630;BME280;15817;42.130;24.762;2023-02-26T09:08:40;98794.75;;;16.57;52.87
28630;BME280;15817;42.130;24.762;2023-02-26T09:11:06;98806.31;;;16.78;52.35
28630;BME280;15817;42.130;24.762;2023-02-26T09:13:32;98810.72;;;16.97;51.64
28630;BME280;15817;42.130;24.762;2023-02-26T09:15:58;98804.59;;;17.13;51.11
28630;BME280;15817;42.130;24.762;2023-02-26T09:18:23;98818.31;;;17.25;51.21
28630;BME280;15817;42.130;24.762;2023-02-26T09:20:52;98810.38;;;17.22;49.45
28630;BME280;15817;42.130;24.762;2023-02-26T09:23:18;98812.38;;;17.36;49.98
28630;BME280;15817;42.130;24.762;2023-02-26T09:25:43;98807.97;;;17.52;49.68
28630;BME280;15817;42.130;24.762;2023-02-26T09:28:09;98805.69;;;17.62;49.88
28630;BME280;15817;42.130;24.762;2023-02-26T09:30:43;98802.56;;;17.71;49.56
28630;BME280;15817;42.130;24.762;2023-02-26T09:33:08;98808.16;;;17.66;49.07
28630;BME280;15817;42.130;24.762;2023-02-26T09:35:34;98798.72;;;17.41;49.61
28630;BME280;15817;42.130;24.762;2023-02-26T09:38:01;98798.09;;;17.53;48.33
28630;BME280;15817;42.130;24.762;2023-02-26T09:40:45;98801.56;;;17.55;47.82
28630;BME280;15817;42.130;24.762;2023-02-26T09:51:51;98789.72;;;17.93;46.58
28630;BME280;15817;42.130;24.762;2023-02-26T09:54:25;98793.91;;;17.99;46.38
28630;BME280;15817;42.130;24.762;2023-02-26T09:56:52;98804.22;;;18.24;45.36
28630;BME280;15817;42.130;24.762;2023-02-26T09:59:21;98790.00;;;18.22;45.32
28630;BME280;15817;42.130;24.762;2023-02-26T10:10:00;98764.97;;;17.69;47.25
28630;BME280;15817;42.130;24.762;2023-02-26T10:12:39;98779.75;;;17.95;44.71
28630;BME280;15817;42.130;24.762;2023-02-26T10:15:18;98786.81;;;18.14;43.73
28630;BME280;15817;42.130;24.762;2023-02-26T10:18:11;98789.78;;;18.25;42.62
28630;BME280;15817;42.130;24.762;2023-02-26T10:20:57;98776.81;;;18.49;41.55
28630;BME280;15817;42.130;24.762;2023-02-26T10:26:56;98782.84;;;18.69;40.63
28630;BME280;15817;42.130;24.762;2023-02-26T10:29:35;98780.78;;;18.90;40.44
28630;BME280;15817;42.130;24.762;2023-02-26T10:35:07;98778.72;;;18.79;39.62
28630;BME280;15817;42.130;24.762;2023-02-26T10:40:34;98795.69;;;19.27;39.31
28630;BME280;15817;42.130;24.762;2023-02-26T10:46:06;98775.34;;;19.22;38.80
28630;BME280;15817;42.130;24.762;2023-02-26T10:51:38;98756.41;;;19.07;40.01
28630;BME280;15817;42.130;24.762;2023-02-26T10:57:24;98775.03;;;18.96;40.30
28630;BME280;15817;42.130;24.762;2023-02-26T10:59:51;98775.56;;;18.87;40.98
28630;BME280;15817;42.130;24.762;2023-02-26T11:02:38;98751.22;;;18.73;41.98
28630;BME280;15817;42.130;24.762;2023-02-26T11:05:16;98748.81;;;18.68;42.73
28630;BME280;15817;42.130;24.762;2023-02-26T11:07:44;98737.94;;;18.70;40.86
28630;BME280;15817;42.130;24.762;2023-02-26T11:10:18;98744.38;;;18.67;40.28
28630;BME280;15817;42.130;24.762;2023-02-26T11:12:44;98746.00;;;18.70;40.44
28630;BME280;15817;42.130;24.762;2023-02-26T11:15:21;98755.66;;;18.74;40.15
28630;BME280;15817;42.130;24.762;2023-02-26T11:18:13;98732.75;;;18.67;41.62
28630;BME280;15817;42.130;24.762;2023-02-26T11:20:52;98743.06;;;18.59;40.93
28630;BME280;15817;42.130;24.762;2023-02-26T11:23:38;98722.72;;;18.53;40.91
28630;BME280;15817;42.130;24.762;2023-02-26T11:26:18;98721.44;;;18.60;39.91
28630;BME280;15817;42.130;24.762;2023-02-26T11:28:53;98710.22;;;18.84;40.25
28630;BME280;15817;42.130;24.762;2023-02-26T11:31:51;98733.16;;;18.91;41.88
28630;BME280;15817;42.130;24.762;2023-02-26T11:38:57;98723.56;;;18.38;44.08
28630;BME280;15817;42.130;24.762;2023-02-26T11:45:26;98710.16;;;18.05;45.04
28630;BME280;15817;42.130;24.762;2023-02-26T11:48:06;98717.63;;;18.16;44.76
28630;BME280;15817;42.130;24.762;2023-02-26T11:50:45;98718.88;;;18.10;44.81
28630;BME280;15817;42.130;24.762;2023-02-26T11:53:28;98724.31;;;18.08;45.43
28630;BME280;15817;42.130;24.762;2023-02-26T11:56:02;98699.75;;;18.15;45.46
28630;BME280;15817;42.130;24.762;2023-02-26T11:58:37;98683.00;;;18.09;45.91
28630;BME280;15817;42.130;24.762;2023-02-26T12:01:06;98689.19;;;18.27;45.57
28630;BME280;15817;42.130;24.762;2023-02-26T12:03:42;98677.28;;;18.31;44.85
28630;BME280;15817;42.130;24.762;2023-02-26T12:06:23;98680.94;;;18.30;45.59
28630;BME280;15817;42.130;24.762;2023-02-26T12:08:52;98673.19;;;18.24;45.11
28630;BME280;15817;42.130;24.762;2023-02-26T12:14:15;98697.84;;;18.17;45.17
28630;BME280;15817;42.130;24.762;2023-02-26T12:25:47;98700.78;;;17.96;45.41
28630;BME280;15817;42.130;24.762;2023-02-26T12:45:24;98695.69;;;18.07;42.24
28630;BME280;15817;42.130;24.762;2023-02-26T12:50:53;98662.00;;;18.16;42.05
28630;BME280;15817;42.130;24.762;2023-02-26T12:59:35;98640.00;;;18.71;40.01
28630;BME280;15817;42.130;24.762;2023-02-26T13:05:43;98651.31;;;18.62;39.76
28630;BME280;15817;42.130;24.762;2023-02-26T13:08:31;98677.22;;;18.64;39.50
28630;BME280;15817;42.130;24.762;2023-02-26T13:14:24;98714.81;;;18.50;40.87
28630;BME280;15817;42.130;24.762;2023-02-26T13:19:43;98701.94;;;18.39;41.30
28630;BME280;15817;42.130;24.762;2023-02-26T13:28:05;98719.41;;;18.48;40.83
28630;BME280;15817;42.130;24.762;2023-02-26T13:30:48;98723.66;;;18.36;40.85
28630;BME280;15817;42.130;24.762;2023-02-26T13:33:17;98745.03;;;18.39;41.90
28630;BME280;15817;42.130;24.762;2023-02-26T13:35:48;98732.09;;;18.30;42.72
28630;BME280;15817;42.130;24.762;2023-02-26T13:46:55;98743.38;;;18.21;43.97
28630;BME280;15817;42.130;24.762;2023-02-26T13:49:30;98752.38;;;18.20;43.60
28630;BME280;15817;42.130;24.762;2023-02-26T13:51:59;98762.44;;;18.17;43.44
28630;BME280;15817;42.130;24.762;2023-02-26T13:54:43;98761.41;;;18.19;43.46
28630;BME280;15817;42.130;24.762;2023-02-26T14:00:32;98748.47;;;18.10;43.60
28630;BME280;15817;42.130;24.762;2023-02-26T14:06:21;98787.00;;;18.11;43.78
28630;BME280;15817;42.130;24.762;2023-02-26T14:08:57;98778.94;;;18.11;43.35
28630;BME280;15817;42.130;24.762;2023-02-26T14:12:03;98785.06;;;18.13;43.75
28630;BME280;15817;42.130;24.762;2023-02-26T14:15:27;98782.38;;;18.13;43.61
28630;BME280;15817;42.130;24.762;2023-02-26T14:20:26;98792.00;;;18.01;44.95
28630;BME280;15817;42.130;24.762;2023-02-26T14:25:40;98798.28;;;17.84;43.58
28630;BME280;15817;42.130;24.762;2023-02-26T14:41:07;98789.09;;;17.88;43.02
28630;BME280;15817;42.130;24.762;2023-02-26T14:44:14;98800.31;;;17.79;43.33
28630;BME280;15817;42.130;24.762;2023-02-26T14:46:48;98799.00;;;17.70;43.97
28630;BME280;15817;42.130;24.762;2023-02-26T14:49:36;98801.03;;;17.65;45.06
28630;BME280;15817;42.130;24.762;2023-02-26T14:53:08;98788.66;;;17.63;44.79
28630;BME280;15817;42.130;24.762;2023-02-26T15:06:59;98823.38;;;17.49;46.07
28630;BME280;15817;42.130;24.762;2023-02-26T15:12:38;98834.75;;;17.36;47.00
28630;BME280;15817;42.130;24.762;2023-02-26T15:25:42;98834.00;;;17.16;46.93
28630;BME280;15817;42.130;24.762;2023-02-26T15:28:25;98852.50;;;17.22;46.99
28630;BME280;15817;42.130;24.762;2023-02-26T15:30:55;98841.19;;;17.15;46.63
28630;BME280;15817;42.130;24.762;2023-02-26T15:33:29;98846.13;;;17.24;46.46
28630;BME280;15817;42.130;24.762;2023-02-26T15:36:15;98846.44;;;17.18;46.80
28630;BME280;15817;42.130;24.762;2023-02-26T15:38:47;98853.44;;;17.21;46.27
28630;BME280;15817;42.130;24.762;2023-02-26T15:41:15;98860.75;;;17.19;46.39
28630;BME280;15817;42.130;24.762;2023-02-26T15:44:07;98866.88;;;17.21;46.67
28630;BME280;15817;42.130;24.762;2023-02-26T15:46:41;98869.81;;;17.16;46.95
28630;BME280;15817;42.130;24.762;2023-02-26T15:49:32;98879.69;;;17.16;47.54
28630;BME280;15817;42.130;24.762;2023-02-26T15:52:03;98877.44;;;17.07;47.52
28630;BME280;15817;42.130;24.762;2023-02-26T15:54:53;98883.53;;;17.10;47.68
28630;BME280;15817;42.130;24.762;2023-02-26T15:57:31;98879.16;;;17.08;47.72
28630;BME280;15817;42.130;24.762;2023-02-26T16:00:04;98900.31;;;17.15;47.82
28630;BME280;15817;42.130;24.762;2023-02-26T16:02:37;98899.50;;;17.13;47.75
28630;BME280;15817;42.130;24.762;2023-02-26T16:05:05;98898.28;;;17.01;47.91
28630;BME280;15817;42.130;24.762;2023-02-26T16:07:32;98916.22;;;17.01;48.64
28630;BME280;15817;42.130;24.762;2023-02-26T16:10:07;98931.53;;;16.99;48.76
28630;BME280;15817;42.130;24.762;2023-02-26T16:12:43;98925.53;;;16.94;49.14
28630;BME280;15817;42.130;24.762;2023-02-26T16:15:29;98908.97;;;16.84;48.70
28630;BME280;15817;42.130;24.762;2023-02-26T16:18:00;98919.84;;;16.81;49.16
28630;BME280;15817;42.130;24.762;2023-02-26T16:23:45;98934.34;;;16.77;49.45
28630;BME280;15817;42.130;24.762;2023-02-26T16:26:32;98950.38;;;16.79;49.40
28630;BME280;15817;42.130;24.762;2023-02-26T16:29:25;98971.81;;;16.80;49.47
28630;BME280;15817;42.130;24.762;2023-02-26T16:32:05;98956.19;;;16.70;49.83
28630;BME280;15817;42.130;24.762;2023-02-26T16:34:51;98975.69;;;16.73;49.56
28630;BME280;15817;42.130;24.762;2023-02-26T16:43:31;98979.47;;;16.69;49.76
28630;BME280;15817;42.130;24.762;2023-02-26T16:46:27;98968.13;;;16.62;50.39
28630;BME280;15817;42.130;24.762;2023-02-26T16:49:14;98984.03;;;16.67;50.24
28630;BME280;15817;42.130;24.762;2023-02-26T16:51:44;98986.91;;;16.62;50.10
28630;BME280;15817;42.130;24.762;2023-02-26T16:57:07;98993.16;;;16.63;50.69
28630;BME280;15817;42.130;24.762;2023-02-26T16:59:39;99003.91;;;16.63;50.96
28630;BME280;15817;42.130;24.762;2023-02-26T17:02:13;98996.66;;;16.65;50.47